sensor_id;sensor_type;location;lat;lon;timestamp;P1;durP1;ratioP1;P2;durP2;ratioP2
51800;SDS011;37855;53.204;6.568;2022-09-17T00:00:24;17.52;;;2.90;;
51800;SDS011;37855;53.204;6.568;2022-09-17T00:02:53;23.30;;;3.42;;
51800;SDS011;37855;53.204;6.568;2022-09-17T00:05:22;21.33;;;3.85;;
51800;SDS011;37855;53.204;6.568;2022-09-17T00:07:48;19.08;;;3.30;;
51800;SDS011;37855;53.204;6.568;2022-09-17T00:10:18;22.25;;;3.45;;
51800;SDS011;37855;53.204;6.568;2022-09-17T00:12:44;13.82;;;2.47;;
51800;SDS011;37855;53.204;6.568;2022-09-17T00:15:11;14.20;;;2.67;;
51800;SDS011;37855;53.204;6.568;2022-09-17T00:17:37;12.18;;;2.25;;
51800;SDS011;37855;53.204;6.568;2022-09-17T00:20:03;17.15;;;2.67;;
51800;SDS011;37855;53.204;6.568;2022-09-17T00:22:32;14.98;;;2.90;;
51800;SDS011;37855;53.204;6.568;2022-09-17T00:24:57;13.82;;;2.88;;
51800;SDS011;37855;53.204;6.568;2022-09-17T00:27:23;16.00;;;2.42;;
51800;SDS011;37855;53.204;6.568;2022-09-17T00:29:49;13.88;;;2.58;;
51800;SDS011;37855;53.204;6.568;2022-09-17T00:32:14;16.52;;;2.83;;
51800;SDS011;37855;53.204;6.568;2022-09-17T00:34:41;19.27;;;3.30;;
51800;SDS011;37855;53.204;6.568;2022-09-17T00:37:07;17.35;;;3.22;;
51800;SDS011;37855;53.204;6.568;2022-09-17T00:39:32;20.92;;;3.33;;
51800;SDS011;37855;53.204;6.568;2022-09-17T00:41:58;18.17;;;3.50;;
51800;SDS011;37855;53.204;6.568;2022-09-17T00:47:13;16.40;;;3.13;;
51800;SDS011;37855;53.204;6.568;2022-09-17T00:49:49;16.25;;;3.05;;
51800;SDS011;37855;53.204;6.568;2022-09-17T00:52:23;16.70;;;2.90;;
51800;SDS011;37855;53.204;6.568;2022-09-17T00:54:55;15.20;;;2.85;;
51800;SDS011;37855;53.204;6.568;2022-09-17T00:57:25;25.83;;;4.00;;
51800;SDS011;37855;53.204;6.568;2022-09-17T00:59:52;20.63;;;3.42;;
51800;SDS011;37855;53.204;6.568;2022-09-17T01:02:18;20.20;;;3.42;;
51800;SDS011;37855;53.204;6.568;2022-09-17T01:04:44;20.45;;;3.38;;
51800;SDS011;37855;53.204;6.568;2022-09-17T01:07:23;19.85;;;3.40;;
51800;SDS011;37855;53.204;6.568;2022-09-17T01:10:28;19.63;;;3.35;;
51800;SDS011;37855;53.204;6.568;2022-09-17T01:32:57;23.30;;;3.47;;
51800;SDS011;37855;53.204;6.568;2022-09-17T01:35:50;25.98;;;3.65;;
51800;SDS011;37855;53.204;6.568;2022-09-17T01:38:49;20.38;;;3.45;;
51800;SDS011;37855;53.204;6.568;2022-09-17T01:44:11;22.25;;;3.47;;
51800;SDS011;37855;53.204;6.568;2022-09-17T01:46:48;22.60;;;4.07;;
51800;SDS011;37855;53.204;6.568;2022-09-17T01:49:27;22.95;;;3.80;;
51800;SDS011;37855;53.204;6.568;2022-09-17T01:51:55;18.50;;;3.65;;
51800;SDS011;37855;53.204;6.568;2022-09-17T01:54:36;20.85;;;3.80;;
51800;SDS011;37855;53.204;6.568;2022-09-17T01:57:13;22.25;;;3.53;;
51800;SDS011;37855;53.204;6.568;2022-09-17T01:59:50;24.48;;;3.90;;
51800;SDS011;37855;53.204;6.568;2022-09-17T02:02:35;25.52;;;3.70;;
51800;SDS011;37855;53.204;6.568;2022-09-17T02:05:14;18.23;;;3.17;;
51800;SDS011;37855;53.204;6.568;2022-09-17T02:07:49;19.58;;;3.40;;
51800;SDS011;37855;53.204;6.568;2022-09-17T02:10:44;19.95;;;3.03;;
51800;SDS011;37855;53.204;6.568;2022-09-17T02:13:20;22.95;;;3.42;;
51800;SDS011;37855;53.204;6.568;2022-09-17T02:15:58;21.55;;;3.42;;
51800;SDS011;37855;53.204;6.568;2022-09-17T02:21:14;18.38;;;2.78;;
51800;SDS011;37855;53.204;6.568;2022-09-17T02:23:57;18.17;;;3.13;;
51800;SDS011;37855;53.204;6.568;2022-09-17T02:26:30;18.20;;;2.60;;
51800;SDS011;37855;53.204;6.568;2022-09-17T02:29:00;18.83;;;3.20;;
51800;SDS011;37855;53.204;6.568;2022-09-17T02:31:32;14.30;;;3.13;;
51800;SDS011;37855;53.204;6.568;2022-09-17T02:33:59;21.50;;;3.22;;
51800;SDS011;37855;53.204;6.568;2022-09-17T02:36:28;18.08;;;2.90;;
51800;SDS011;37855;53.204;6.568;2022-09-17T02:38:59;19.65;;;3.38;;
51800;SDS011;37855;53.204;6.568;2022-09-17T02:41:34;16.40;;;2.33;;
51800;SDS011;37855;53.204;6.568;2022-09-17T02:44:30;14.70;;;2.67;;
51800;SDS011;37855;53.204;6.568;2022-09-17T02:50:17;20.00;;;3.25;;
51800;SDS011;37855;53.204;6.568;2022-09-17T02:58:49;19.52;;;2.80;;
51800;SDS011;37855;53.204;6.568;2022-09-17T03:01:22;25.85;;;3.42;;
51800;SDS011;37855;53.204;6.568;2022-09-17T03:03:53;21.90;;;4.20;;
51800;SDS011;37855;53.204;6.568;2022-09-17T03:06:20;18.20;;;3.78;;
51800;SDS011;37855;53.204;6.568;2022-09-17T03:08:47;18.05;;;3.00;;
51800;SDS011;37855;53.204;6.568;2022-09-17T03:11:13;25.17;;;3.42;;
51800;SDS011;37855;53.204;6.568;2022-09-17T03:13:39;21.33;;;3.25;;
51800;SDS011;37855;53.204;6.568;2022-09-17T03:16:05;17.98;;;3.33;;
51800;SDS011;37855;53.204;6.568;2022-09-17T03:18:31;21.35;;;3.40;;
51800;SDS011;37855;53.204;6.568;2022-09-17T03:20:56;22.13;;;3.28;;
51800;SDS011;37855;53.204;6.568;2022-09-17T03:23:22;17.33;;;3.00;;
51800;SDS011;37855;53.204;6.568;2022-09-17T03:25:48;16.27;;;3.20;;
51800;SDS011;37855;53.204;6.568;2022-09-17T03:28:14;25.40;;;3.35;;
51800;SDS011;37855;53.204;6.568;2022-09-17T03:30:41;20.90;;;3.70;;
51800;SDS011;37855;53.204;6.568;2022-09-17T03:33:08;23.05;;;2.80;;
51800;SDS011;37855;53.204;6.568;2022-09-17T03:35:33;17.35;;;2.88;;
51800;SDS011;37855;53.204;6.568;2022-09-17T03:37:59;20.10;;;3.30;;
51800;SDS011;37855;53.204;6.568;2022-09-17T03:40:24;15.90;;;2.55;;
51800;SDS011;37855;53.204;6.568;2022-09-17T03:42:50;17.75;;;2.70;;
51800;SDS011;37855;53.204;6.568;2022-09-17T03:45:16;16.45;;;3.67;;
51800;SDS011;37855;53.204;6.568;2022-09-17T03:47:41;15.73;;;2.65;;
51800;SDS011;37855;53.204;6.568;2022-09-17T03:50:07;17.20;;;3.25;;
51800;SDS011;37855;53.204;6.568;2022-09-17T03:52:33;13.05;;;2.97;;
51800;SDS011;37855;53.204;6.568;2022-09-17T03:54:59;18.23;;;2.92;;
51800;SDS011;37855;53.204;6.568;2022-09-17T03:57:25;19.58;;;3.30;;
51800;SDS011;37855;53.204;6.568;2022-09-17T03:59:50;21.27;;;3.00;;
51800;SDS011;37855;53.204;6.568;2022-09-17T04:02:16;20.92;;;3.30;;
51800;SDS011;37855;53.204;6.568;2022-09-17T04:04:41;15.68;;;2.90;;
51800;SDS011;37855;53.204;6.568;2022-09-17T04:07:07;17.35;;;3.20;;
51800;SDS011;37855;53.204;6.568;2022-09-17T04:09:33;16.52;;;3.00;;
51800;SDS011;37855;53.204;6.568;2022-09-17T04:11:58;17.33;;;2.92;;
51800;SDS011;37855;53.204;6.568;2022-09-17T04:14:24;19.48;;;2.83;;
51800;SDS011;37855;53.204;6.568;2022-09-17T04:16:50;20.70;;;3.38;;
51800;SDS011;37855;53.204;6.568;2022-09-17T04:19:15;17.33;;;2.50;;
51800;SDS011;37855;53.204;6.568;2022-09-17T04:21:41;17.13;;;2.90;;
51800;SDS011;37855;53.204;6.568;2022-09-17T04:24:07;19.92;;;3.00;;
51800;SDS011;37855;53.204;6.568;2022-09-17T04:26:33;17.23;;;2.75;;
51800;SDS011;37855;53.204;6.568;2022-09-17T04:28:58;13.55;;;2.70;;
51800;SDS011;37855;53.204;6.568;2022-09-17T04:31:25;18.55;;;2.63;;
51800;SDS011;37855;53.204;6.568;2022-09-17T04:33:51;14.82;;;2.53;;
51800;SDS011;37855;53.204;6.568;2022-09-17T04:36:17;20.50;;;2.90;;
51800;SDS011;37855;53.204;6.568;2022-09-17T04:38:43;17.00;;;2.90;;
51800;SDS011;37855;53.204;6.568;2022-09-17T04:41:11;14.93;;;2.33;;
51800;SDS011;37855;53.204;6.568;2022-09-17T04:43:37;21.88;;;2.70;;
51800;SDS011;37855;53.204;6.568;2022-09-17T04:46:02;14.82;;;2.70;;
51800;SDS011;37855;53.204;6.568;2022-09-17T04:48:28;15.32;;;3.15;;
51800;SDS011;37855;53.204;6.568;2022-09-17T04:50:54;16.13;;;2.70;;
51800;SDS011;37855;53.204;6.568;2022-09-17T04:53:20;15.73;;;2.88;;
51800;SDS011;37855;53.204;6.568;2022-09-17T04:55:45;19.38;;;3.00;;
51800;SDS011;37855;53.204;6.568;2022-09-17T04:58:11;17.90;;;2.70;;
51800;SDS011;37855;53.204;6.568;2022-09-17T05:00:37;19.55;;;3.17;;
51800;SDS011;37855;53.204;6.568;2022-09-17T05:03:06;15.13;;;2.60;;
51800;SDS011;37855;53.204;6.568;2022-09-17T05:05:32;20.10;;;2.78;;
51800;SDS011;37855;53.204;6.568;2022-09-17T05:07:58;16.02;;;2.63;;
51800;SDS011;37855;53.204;6.568;2022-09-17T05:10:23;19.77;;;3.10;;
51800;SDS011;37855;53.204;6.568;2022-09-17T05:12:51;23.65;;;2.90;;
51800;SDS011;37855;53.204;6.568;2022-09-17T05:15:18;13.38;;;2.40;;
51800;SDS011;37855;53.204;6.568;2022-09-17T05:17:44;14.43;;;2.85;;
51800;SDS011;37855;53.204;6.568;2022-09-17T05:20:10;15.50;;;2.50;;
51800;SDS011;37855;53.204;6.568;2022-09-17T05:22:41;18.60;;;2.95;;
51800;SDS011;37855;53.204;6.568;2022-09-17T05:25:11;14.50;;;2.90;;
51800;SDS011;37855;53.204;6.568;2022-09-17T05:27:39;18.73;;;2.90;;
51800;SDS011;37855;53.204;6.568;2022-09-17T05:30:05;22.08;;;2.75;;
51800;SDS011;37855;53.204;6.568;2022-09-17T05:32:32;15.27;;;2.60;;
51800;SDS011;37855;53.204;6.568;2022-09-17T05:34:58;17.40;;;3.10;;
51800;SDS011;37855;53.204;6.568;2022-09-17T05:37:24;16.15;;;2.60;;
51800;SDS011;37855;53.204;6.568;2022-09-17T05:39:49;18.05;;;2.65;;
51800;SDS011;37855;53.204;6.568;2022-09-17T05:42:15;19.40;;;3.08;;
51800;SDS011;37855;53.204;6.568;2022-09-17T05:44:40;20.88;;;3.55;;
51800;SDS011;37855;53.204;6.568;2022-09-17T05:47:06;16.58;;;2.65;;
51800;SDS011;37855;53.204;6.568;2022-09-17T05:49:32;18.88;;;2.70;;
51800;SDS011;37855;53.204;6.568;2022-09-17T05:51:57;17.00;;;2.58;;
51800;SDS011;37855;53.204;6.568;2022-09-17T05:54:23;19.48;;;3.00;;
51800;SDS011;37855;53.204;6.568;2022-09-17T05:56:52;18.33;;;2.80;;
51800;SDS011;37855;53.204;6.568;2022-09-17T05:59:18;23.52;;;3.45;;
51800;SDS011;37855;53.204;6.568;2022-09-17T06:01:44;20.17;;;3.17;;
51800;SDS011;37855;53.204;6.568;2022-09-17T06:04:10;17.95;;;3.13;;
51800;SDS011;37855;53.204;6.568;2022-09-17T06:06:36;12.63;;;2.33;;
51800;SDS011;37855;53.204;6.568;2022-09-17T06:09:05;18.65;;;2.42;;
51800;SDS011;37855;53.204;6.568;2022-09-17T06:11:32;12.38;;;2.00;;
51800;SDS011;37855;53.204;6.568;2022-09-17T06:13:59;10.98;;;1.73;;
51800;SDS011;37855;53.204;6.568;2022-09-17T06:16:24;10.40;;;2.10;;
51800;SDS011;37855;53.204;6.568;2022-09-17T06:18:51;19.10;;;2.38;;
51800;SDS011;37855;53.204;6.568;2022-09-17T06:21:17;12.85;;;2.25;;
51800;SDS011;37855;53.204;6.568;2022-09-17T06:23:45;11.00;;;1.98;;
51800;SDS011;37855;53.204;6.568;2022-09-17T06:26:11;11.30;;;2.35;;
51800;SDS011;37855;53.204;6.568;2022-09-17T06:28:37;13.38;;;2.47;;
51800;SDS011;37855;53.204;6.568;2022-09-17T06:31:03;13.57;;;2.55;;
51800;SDS011;37855;53.204;6.568;2022-09-17T06:33:31;19.02;;;3.15;;
51800;SDS011;37855;53.204;6.568;2022-09-17T06:36:00;17.52;;;2.72;;
51800;SDS011;37855;53.204;6.568;2022-09-17T06:38:29;12.88;;;2.13;;
51800;SDS011;37855;53.204;6.568;2022-09-17T06:40:56;14.02;;;2.20;;
51800;SDS011;37855;53.204;6.568;2022-09-17T06:43:23;22.05;;;2.92;;
51800;SDS011;37855;53.204;6.568;2022-09-17T06:48:18;15.38;;;2.22;;
51800;SDS011;37855;53.204;6.568;2022-09-17T06:50:44;12.60;;;1.90;;
51800;SDS011;37855;53.204;6.568;2022-09-17T06:53:09;8.80;;;1.83;;
51800;SDS011;37855;53.204;6.568;2022-09-17T06:55:35;9.55;;;1.58;;
51800;SDS011;37855;53.204;6.568;2022-09-17T06:58:00;8.10;;;1.70;;
51800;SDS011;37855;53.204;6.568;2022-09-17T07:00:26;13.77;;;2.22;;
51800;SDS011;37855;53.204;6.568;2022-09-17T07:02:55;9.60;;;1.73;;
51800;SDS011;37855;53.204;6.568;2022-09-17T07:05:22;10.05;;;1.85;;
51800;SDS011;37855;53.204;6.568;2022-09-17T07:07:49;12.82;;;2.45;;
51800;SDS011;37855;53.204;6.568;2022-09-17T07:10:15;13.25;;;2.33;;
51800;SDS011;37855;53.204;6.568;2022-09-17T07:12:41;12.35;;;1.80;;
51800;SDS011;37855;53.204;6.568;2022-09-17T07:15:07;15.18;;;2.42;;
51800;SDS011;37855;53.204;6.568;2022-09-17T07:17:35;17.35;;;2.25;;
51800;SDS011;37855;53.204;6.568;2022-09-17T07:20:03;17.00;;;2.35;;
51800;SDS011;37855;53.204;6.568;2022-09-17T07:22:30;15.50;;;2.50;;
51800;SDS011;37855;53.204;6.568;2022-09-17T07:24:56;20.27;;;2.88;;
51800;SDS011;37855;53.204;6.568;2022-09-17T07:27:21;15.25;;;2.30;;
51800;SDS011;37855;53.204;6.568;2022-09-17T07:29:47;13.93;;;2.70;;
51800;SDS011;37855;53.204;6.568;2022-09-17T07:32:12;14.00;;;2.60;;
51800;SDS011;37855;53.204;6.568;2022-09-17T07:34:38;13.77;;;2.25;;
51800;SDS011;37855;53.204;6.568;2022-09-17T07:37:07;14.80;;;2.85;;
51800;SDS011;37855;53.204;6.568;2022-09-17T07:39:33;16.77;;;2.22;;
51800;SDS011;37855;53.204;6.568;2022-09-17T07:41:58;12.27;;;2.13;;
51800;SDS011;37855;53.204;6.568;2022-09-17T07:44:24;13.02;;;2.00;;
51800;SDS011;37855;53.204;6.568;2022-09-17T07:46:49;11.27;;;1.98;;
51800;SDS011;37855;53.204;6.568;2022-09-17T07:49:15;11.63;;;2.10;;
51800;SDS011;37855;53.204;6.568;2022-09-17T07:51:40;10.65;;;1.95;;
51800;SDS011;37855;53.204;6.568;2022-09-17T07:54:06;11.45;;;1.65;;
51800;SDS011;37855;53.204;6.568;2022-09-17T07:56:32;12.23;;;2.10;;
51800;SDS011;37855;53.204;6.568;2022-09-17T07:58:58;16.13;;;2.20;;
51800;SDS011;37855;53.204;6.568;2022-09-17T08:01:26;14.38;;;2.13;;
51800;SDS011;37855;53.204;6.568;2022-09-17T08:03:52;12.18;;;2.03;;
51800;SDS011;37855;53.204;6.568;2022-09-17T08:06:19;10.25;;;1.77;;
51800;SDS011;37855;53.204;6.568;2022-09-17T08:08:48;10.07;;;1.80;;
51800;SDS011;37855;53.204;6.568;2022-09-17T08:11:15;10.30;;;2.08;;
51800;SDS011;37855;53.204;6.568;2022-09-17T08:13:48;10.90;;;1.92;;
51800;SDS011;37855;53.204;6.568;2022-09-17T08:16:15;12.82;;;1.88;;
51800;SDS011;37855;53.204;6.568;2022-09-17T08:18:42;11.88;;;1.90;;
51800;SDS011;37855;53.204;6.568;2022-09-17T08:21:09;15.18;;;2.60;;
51800;SDS011;37855;53.204;6.568;2022-09-17T08:23:37;14.85;;;2.30;;
51800;SDS011;37855;53.204;6.568;2022-09-17T08:26:05;13.95;;;2.15;;
51800;SDS011;37855;53.204;6.568;2022-09-17T08:28:32;13.70;;;2.33;;
51800;SDS011;37855;53.204;6.568;2022-09-17T08:31:03;14.80;;;2.58;;
51800;SDS011;37855;53.204;6.568;2022-09-17T08:33:31;18.25;;;3.03;;
51800;SDS011;37855;53.204;6.568;2022-09-17T08:36:01;21.92;;;2.88;;
51800;SDS011;37855;53.204;6.568;2022-09-17T08:38:28;13.93;;;2.13;;
51800;SDS011;37855;53.204;6.568;2022-09-17T08:40:59;12.52;;;1.92;;
51800;SDS011;37855;53.204;6.568;2022-09-17T08:43:30;12.95;;;2.10;;
51800;SDS011;37855;53.204;6.568;2022-09-17T08:45:58;9.57;;;1.52;;
51800;SDS011;37855;53.204;6.568;2022-09-17T08:48:27;15.18;;;2.05;;
51800;SDS011;37855;53.204;6.568;2022-09-17T08:51:16;13.30;;;1.85;;
51800;SDS011;37855;53.204;6.568;2022-09-17T08:54:00;13.32;;;2.00;;
51800;SDS011;37855;53.204;6.568;2022-09-17T08:56:36;6.93;;;1.30;;
51800;SDS011;37855;53.204;6.568;2022-09-17T09:01:59;10.15;;;1.58;;
51800;SDS011;37855;53.204;6.568;2022-09-17T09:04:57;8.48;;;1.52;;
51800;SDS011;37855;53.204;6.568;2022-09-17T09:07:41;7.25;;;1.30;;
51800;SDS011;37855;53.204;6.568;2022-09-17T09:10:25;7.00;;;1.40;;
51800;SDS011;37855;53.204;6.568;2022-09-17T09:12:55;7.50;;;1.25;;
51800;SDS011;37855;53.204;6.568;2022-09-17T09:23:18;7.65;;;1.73;;
51800;SDS011;37855;53.204;6.568;2022-09-17T09:26:07;9.70;;;1.73;;
51800;SDS011;37855;53.204;6.568;2022-09-17T09:28:45;11.68;;;2.20;;
51800;SDS011;37855;53.204;6.568;2022-09-17T09:31:32;10.15;;;1.65;;
51800;SDS011;37855;53.204;6.568;2022-09-17T09:34:00;9.82;;;1.50;;
51800;SDS011;37855;53.204;6.568;2022-09-17T09:36:28;12.20;;;2.17;;
51800;SDS011;37855;53.204;6.568;2022-09-17T09:39:03;9.52;;;1.90;;
51800;SDS011;37855;53.204;6.568;2022-09-17T09:44:15;10.10;;;1.60;;
51800;SDS011;37855;53.204;6.568;2022-09-17T09:52:02;9.15;;;1.60;;
51800;SDS011;37855;53.204;6.568;2022-09-17T09:57:50;17.02;;;2.17;;
51800;SDS011;37855;53.204;6.568;2022-09-17T10:05:56;13.18;;;2.13;;
51800;SDS011;37855;53.204;6.568;2022-09-17T10:08:26;12.45;;;2.30;;
51800;SDS011;37855;53.204;6.568;2022-09-17T10:13:24;14.70;;;2.20;;
51800;SDS011;37855;53.204;6.568;2022-09-17T10:15:51;13.48;;;2.42;;
51800;SDS011;37855;53.204;6.568;2022-09-17T10:20:59;14.25;;;2.30;;
51800;SDS011;37855;53.204;6.568;2022-09-17T10:23:26;10.40;;;2.13;;
51800;SDS011;37855;53.204;6.568;2022-09-17T10:25:56;15.27;;;2.53;;
51800;SDS011;37855;53.204;6.568;2022-09-17T10:30:54;16.92;;;2.85;;
51800;SDS011;37855;53.204;6.568;2022-09-17T10:33:31;8.80;;;1.70;;
51800;SDS011;37855;53.204;6.568;2022-09-17T10:35:59;10.70;;;2.28;;
51800;SDS011;37855;53.204;6.568;2022-09-17T10:43:38;16.17;;;2.58;;
51800;SDS011;37855;53.204;6.568;2022-09-17T10:46:05;15.82;;;2.65;;
51800;SDS011;37855;53.204;6.568;2022-09-17T10:48:36;18.58;;;2.55;;
51800;SDS011;37855;53.204;6.568;2022-09-17T10:51:05;19.23;;;2.75;;
51800;SDS011;37855;53.204;6.568;2022-09-17T10:53:36;16.83;;;3.00;;
51800;SDS011;37855;53.204;6.568;2022-09-17T10:56:28;17.80;;;2.60;;
51800;SDS011;37855;53.204;6.568;2022-09-17T11:20:31;15.65;;;2.25;;
51800;SDS011;37855;53.204;6.568;2022-09-17T11:23:46;14.70;;;2.30;;
51800;SDS011;37855;53.204;6.568;2022-09-17T11:29:06;15.55;;;1.92;;
51800;SDS011;37855;53.204;6.568;2022-09-17T11:37:41;11.80;;;1.90;;
51800;SDS011;37855;53.204;6.568;2022-09-17T11:40:20;11.05;;;1.92;;
51800;SDS011;37855;53.204;6.568;2022-09-17T11:45:24;15.15;;;2.17;;
51800;SDS011;37855;53.204;6.568;2022-09-17T11:48:11;13.13;;;2.42;;
51800;SDS011;37855;53.204;6.568;2022-09-17T11:53:16;12.23;;;2.40;;
51800;SDS011;37855;53.204;6.568;2022-09-17T11:55:50;12.95;;;2.67;;
51800;SDS011;37855;53.204;6.568;2022-09-17T12:04:15;14.73;;;2.78;;
51800;SDS011;37855;53.204;6.568;2022-09-17T12:06:49;18.23;;;2.95;;
51800;SDS011;37855;53.204;6.568;2022-09-17T12:09:23;13.85;;;2.20;;
51800;SDS011;37855;53.204;6.568;2022-09-17T12:17:27;13.00;;;2.28;;
51800;SDS011;37855;53.204;6.568;2022-09-17T12:20:07;12.77;;;2.10;;
51800;SDS011;37855;53.204;6.568;2022-09-17T12:23:01;15.35;;;2.65;;
51800;SDS011;37855;53.204;6.568;2022-09-17T12:25:35;16.85;;;2.70;;
51800;SDS011;37855;53.204;6.568;2022-09-17T12:30:51;16.65;;;2.85;;
51800;SDS011;37855;53.204;6.568;2022-09-17T12:41:19;14.07;;;2.08;;
51800;SDS011;37855;53.204;6.568;2022-09-17T12:52:51;13.18;;;2.38;;
51800;SDS011;37855;53.204;6.568;2022-09-17T12:58:06;12.27;;;2.33;;
51800;SDS011;37855;53.204;6.568;2022-09-17T13:01:29;15.25;;;2.22;;
51800;SDS011;37855;53.204;6.568;2022-09-17T13:03:46;18.35;;;2.80;;
51800;SDS011;37855;53.204;6.568;2022-09-17T13:15:17;15.70;;;3.20;;
51800;SDS011;37855;53.204;6.568;2022-09-17T13:20:43;18.27;;;3.25;;
51800;SDS011;37855;53.204;6.568;2022-09-17T13:23:27;14.35;;;3.05;;
51800;SDS011;37855;53.204;6.568;2022-09-17T13:25:59;16.02;;;2.97;;
51800;SDS011;37855;53.204;6.568;2022-09-17T13:28:35;16.83;;;3.72;;
51800;SDS011;37855;53.204;6.568;2022-09-17T13:31:02;14.07;;;2.40;;
51800;SDS011;37855;53.204;6.568;2022-09-17T13:36:34;16.58;;;2.45;;
51800;SDS011;37855;53.204;6.568;2022-09-17T13:39:11;13.85;;;2.40;;
51800;SDS011;37855;53.204;6.568;2022-09-17T13:42:15;14.20;;;2.30;;
51800;SDS011;37855;53.204;6.568;2022-09-17T13:44:49;9.35;;;2.08;;
51800;SDS011;37855;53.204;6.568;2022-09-17T13:50:08;28.17;;;4.00;;
51800;SDS011;37855;53.204;6.568;2022-09-17T13:52:37;17.05;;;2.50;;
51800;SDS011;37855;53.204;6.568;2022-09-17T13:55:30;12.75;;;2.25;;
51800;SDS011;37855;53.204;6.568;2022-09-17T13:58:06;11.93;;;1.98;;
51800;SDS011;37855;53.204;6.568;2022-09-17T14:11:51;12.95;;;2.38;;
51800;SDS011;37855;53.204;6.568;2022-09-17T14:27:04;13.38;;;2.22;;
51800;SDS011;37855;53.204;6.568;2022-09-17T14:32:20;8.98;;;1.52;;
51800;SDS011;37855;53.204;6.568;2022-09-17T14:35:19;8.57;;;1.73;;
51800;SDS011;37855;53.204;6.568;2022-09-17T14:38:06;11.45;;;1.90;;
51800;SDS011;37855;53.204;6.568;2022-09-17T14:41:13;13.30;;;2.00;;
51800;SDS011;37855;53.204;6.568;2022-09-17T14:46:11;13.60;;;2.35;;
51800;SDS011;37855;53.204;6.568;2022-09-17T14:48:51;13.60;;;2.17;;
51800;SDS011;37855;53.204;6.568;2022-09-17T14:53:46;11.32;;;2.17;;
51800;SDS011;37855;53.204;6.568;2022-09-17T14:56:17;13.25;;;2.33;;
51800;SDS011;37855;53.204;6.568;2022-09-17T14:58:49;12.35;;;2.05;;
51800;SDS011;37855;53.204;6.568;2022-09-17T15:01:24;11.20;;;2.22;;
51800;SDS011;37855;53.204;6.568;2022-09-17T15:06:42;16.23;;;2.38;;
51800;SDS011;37855;53.204;6.568;2022-09-17T15:09:14;18.55;;;3.13;;
51800;SDS011;37855;53.204;6.568;2022-09-17T15:11:53;12.23;;;2.38;;
51800;SDS011;37855;53.204;6.568;2022-09-17T15:14:26;10.85;;;1.90;;
51800;SDS011;37855;53.204;6.568;2022-09-17T15:16:54;18.08;;;3.05;;
51800;SDS011;37855;53.204;6.568;2022-09-17T15:19:35;16.30;;;2.50;;
51800;SDS011;37855;53.204;6.568;2022-09-17T15:22:05;16.88;;;2.60;;
51800;SDS011;37855;53.204;6.568;2022-09-17T15:24:40;13.20;;;2.22;;
51800;SDS011;37855;53.204;6.568;2022-09-17T15:29:34;15.07;;;2.58;;
51800;SDS011;37855;53.204;6.568;2022-09-17T15:32:02;12.18;;;2.30;;
51800;SDS011;37855;53.204;6.568;2022-09-17T15:34:30;8.77;;;1.70;;
51800;SDS011;37855;53.204;6.568;2022-09-17T15:37:28;10.35;;;1.90;;
51800;SDS011;37855;53.204;6.568;2022-09-17T15:39:50;9.00;;;1.85;;
51800;SDS011;37855;53.204;6.568;2022-09-17T15:42:28;10.32;;;1.83;;
51800;SDS011;37855;53.204;6.568;2022-09-17T15:45:08;11.35;;;1.55;;
51800;SDS011;37855;53.204;6.568;2022-09-17T15:47:56;12.63;;;1.75;;
51800;SDS011;37855;53.204;6.568;2022-09-17T15:50:27;15.40;;;2.47;;
51800;SDS011;37855;53.204;6.568;2022-09-17T15:55:42;10.33;;;2.07;;
51800;SDS011;37855;53.204;6.568;2022-09-17T15:58:21;7.60;;;1.65;;
51800;SDS011;37855;53.204;6.568;2022-09-17T16:06:55;13.70;;;2.20;;
51800;SDS011;37855;53.204;6.568;2022-09-17T16:08:57;10.43;;;1.90;;
51800;SDS011;37855;53.204;6.568;2022-09-17T16:11:31;10.80;;;1.90;;
51800;SDS011;37855;53.204;6.568;2022-09-17T16:13:57;10.05;;;1.75;;
51800;SDS011;37855;53.204;6.568;2022-09-17T16:16:31;13.70;;;2.30;;
51800;SDS011;37855;53.204;6.568;2022-09-17T16:18:58;14.23;;;2.08;;
51800;SDS011;37855;53.204;6.568;2022-09-17T16:21:24;13.23;;;2.20;;
51800;SDS011;37855;53.204;6.568;2022-09-17T16:23:50;12.82;;;2.53;;
51800;SDS011;37855;53.204;6.568;2022-09-17T16:26:18;13.38;;;2.03;;
51800;SDS011;37855;53.204;6.568;2022-09-17T16:28:46;10.43;;;1.88;;
51800;SDS011;37855;53.204;6.568;2022-09-17T16:31:14;10.07;;;1.92;;
51800;SDS011;37855;53.204;6.568;2022-09-17T16:33:40;11.35;;;1.92;;
51800;SDS011;37855;53.204;6.568;2022-09-17T16:36:06;9.10;;;1.50;;
51800;SDS011;37855;53.204;6.568;2022-09-17T16:38:35;10.68;;;1.83;;
51800;SDS011;37855;53.204;6.568;2022-09-17T16:41:06;15.13;;;2.08;;
51800;SDS011;37855;53.204;6.568;2022-09-17T16:43:32;12.45;;;2.08;;
51800;SDS011;37855;53.204;6.568;2022-09-17T16:48:24;11.30;;;1.90;;
51800;SDS011;37855;53.204;6.568;2022-09-17T16:50:49;10.73;;;2.25;;
51800;SDS011;37855;53.204;6.568;2022-09-17T16:53:15;10.40;;;1.80;;
51800;SDS011;37855;53.204;6.568;2022-09-17T16:55:40;9.40;;;1.95;;
51800;SDS011;37855;53.204;6.568;2022-09-17T16:58:06;11.73;;;2.20;;
51800;SDS011;37855;53.204;6.568;2022-09-17T17:00:32;12.20;;;2.33;;
51800;SDS011;37855;53.204;6.568;2022-09-17T17:02:58;11.15;;;1.73;;
51800;SDS011;37855;53.204;6.568;2022-09-17T17:05:24;13.18;;;2.17;;
51800;SDS011;37855;53.204;6.568;2022-09-17T17:07:51;13.40;;;2.30;;
51800;SDS011;37855;53.204;6.568;2022-09-17T17:10:19;13.18;;;2.13;;
51800;SDS011;37855;53.204;6.568;2022-09-17T17:12:46;11.48;;;2.00;;
51800;SDS011;37855;53.204;6.568;2022-09-17T17:15:12;12.30;;;1.98;;
51800;SDS011;37855;53.204;6.568;2022-09-17T17:17:44;11.50;;;2.30;;
51800;SDS011;37855;53.204;6.568;2022-09-17T17:20:10;13.98;;;2.47;;
51800;SDS011;37855;53.204;6.568;2022-09-17T17:22:38;9.27;;;1.70;;
51800;SDS011;37855;53.204;6.568;2022-09-17T17:25:08;18.70;;;2.30;;
51800;SDS011;37855;53.204;6.568;2022-09-17T17:27:39;9.85;;;2.10;;
51800;SDS011;37855;53.204;6.568;2022-09-17T17:30:06;13.68;;;1.92;;
51800;SDS011;37855;53.204;6.568;2022-09-17T17:32:33;9.52;;;1.80;;
51800;SDS011;37855;53.204;6.568;2022-09-17T17:35:00;9.75;;;1.83;;
51800;SDS011;37855;53.204;6.568;2022-09-17T17:37:26;9.35;;;1.58;;
51800;SDS011;37855;53.204;6.568;2022-09-17T17:39:51;9.40;;;1.65;;
51800;SDS011;37855;53.204;6.568;2022-09-17T17:42:18;10.32;;;1.90;;
51800;SDS011;37855;53.204;6.568;2022-09-17T17:44:44;9.20;;;1.65;;
51800;SDS011;37855;53.204;6.568;2022-09-17T17:47:11;10.55;;;1.75;;
51800;SDS011;37855;53.204;6.568;2022-09-17T17:49:37;11.05;;;2.17;;
51800;SDS011;37855;53.204;6.568;2022-09-17T17:52:03;12.45;;;2.13;;
51800;SDS011;37855;53.204;6.568;2022-09-17T17:54:29;10.73;;;2.20;;
51800;SDS011;37855;53.204;6.568;2022-09-17T17:56:55;14.20;;;1.92;;
51800;SDS011;37855;53.204;6.568;2022-09-17T17:59:21;9.52;;;1.65;;
51800;SDS011;37855;53.204;6.568;2022-09-17T18:01:46;15.20;;;2.33;;
51800;SDS011;37855;53.204;6.568;2022-09-17T18:04:12;15.05;;;2.13;;
51800;SDS011;37855;53.204;6.568;2022-09-17T18:06:38;12.88;;;2.25;;
51800;SDS011;37855;53.204;6.568;2022-09-17T18:09:04;16.77;;;2.20;;
51800;SDS011;37855;53.204;6.568;2022-09-17T18:11:30;11.10;;;2.17;;
51800;SDS011;37855;53.204;6.568;2022-09-17T18:13:57;15.82;;;2.45;;
51800;SDS011;37855;53.204;6.568;2022-09-17T18:16:26;14.48;;;2.45;;
51800;SDS011;37855;53.204;6.568;2022-09-17T18:18:53;14.27;;;2.83;;
51800;SDS011;37855;53.204;6.568;2022-09-17T18:21:21;17.73;;;3.05;;
51800;SDS011;37855;53.204;6.568;2022-09-17T18:23:48;14.27;;;2.85;;
51800;SDS011;37855;53.204;6.568;2022-09-17T18:26:15;14.70;;;2.92;;
51800;SDS011;37855;53.204;6.568;2022-09-17T18:28:43;17.95;;;3.17;;